createdAt,value
2023-05-31T00:01:21.431Z,102596.91
2023-05-31T00:03:48.314Z,102632.91
2023-05-31T00:06:17.374Z,102583.16
2023-05-31T00:08:44.108Z,102597.38
2023-05-31T00:11:11.004Z,102627.28
2023-05-31T00:13:40.558Z,102615.28
2023-05-31T00:16:22.815Z,102603.78
2023-05-31T00:18:50.096Z,102588.94
2023-05-31T00:21:19.250Z,102581.56
2023-05-31T00:23:46.080Z,102642.13
2023-05-31T00:26:13.051Z,102635.28
2023-05-31T00:28:39.903Z,102626.69
2023-05-31T00:31:07.056Z,102641.84
2023-05-31T00:33:33.795Z,102587.50
2023-05-31T00:36:00.763Z,102599.22
2023-05-31T00:38:28.857Z,102632.50
2023-05-31T00:40:55.628Z,102596.91
2023-05-31T00:43:22.433Z,102638.41
2023-05-31T00:45:49.827Z,102633.28
2023-05-31T00:48:16.956Z,102591.38
2023-05-31T00:50:43.974Z,102637.91
2023-05-31T00:53:10.750Z,102635.75
2023-05-31T00:55:38.102Z,102639.34
2023-05-31T00:58:04.771Z,102601.25
2023-05-31T01:00:32.202Z,102605.72
2023-05-31T01:03:10.151Z,102597.75
2023-05-31T01:05:39.451Z,102637.28
2023-05-31T01:08:08.716Z,102635.88
2023-05-31T01:10:35.485Z,102607.50
2023-05-31T01:13:14.640Z,102638.59
2023-05-31T01:15:58.497Z,102640.59
2023-05-31T01:18:37.069Z,102632.84
2023-05-31T01:21:06.684Z,102624.84
2023-05-31T01:23:52.750Z,102631.19
2023-05-31T01:26:31.831Z,102645.97
2023-05-31T01:29:02.330Z,102599.25
2023-05-31T01:31:38.055Z,102600.44
2023-05-31T01:34:06.238Z,102524.41
2023-05-31T01:36:33.639Z,102647.41
2023-05-31T01:39:03.280Z,102602.75
2023-05-31T01:41:37.839Z,102613.69
2023-05-31T01:44:07.463Z,102631.91
2023-05-31T01:46:34.634Z,102644.47
2023-05-31T01:49:02.404Z,102632.03
2023-05-31T01:51:34.913Z,102632.78
2023-05-31T01:54:01.886Z,102604.19
2023-05-31T01:56:31.659Z,102591.19
2023-05-31T01:59:03.804Z,102631.63
2023-05-31T02:01:31.876Z,102591.53
2023-05-31T02:03:59.103Z,102600.25
2023-05-31T02:06:28.222Z,102606.19
2023-05-31T02:08:56.235Z,102626.47
2023-05-31T02:11:23.235Z,102623.22
2023-05-31T02:13:49.960Z,102593.19
2023-05-31T02:16:17.730Z,102618.63
2023-05-31T02:18:46.091Z,102625.22
2023-05-31T02:21:13.242Z,102618.31
2023-05-31T02:23:39.953Z,102603.47
2023-05-31T02:26:07.118Z,102618.31
2023-05-31T02:28:34.174Z,102613.38
2023-05-31T02:31:01.999Z,102508.13
2023-05-31T02:33:29.328Z,102625.44
2023-05-31T02:35:59.909Z,102573.66
2023-05-31T02:38:27.963Z,102616.34
2023-05-31T02:40:54.798Z,102578.34
2023-05-31T02:43:21.735Z,102606.19
2023-05-31T02:45:48.567Z,102612.22
2023-05-31T02:48:15.357Z,102611.56
2023-05-31T02:50:42.283Z,102617.03
2023-05-31T02:53:09.019Z,102541.75
2023-05-31T02:55:39.226Z,102573.22
2023-05-31T02:58:09.499Z,102598.22
2023-05-31T03:00:36.368Z,102574.41
2023-05-31T03:03:03.270Z,102577.88
2023-05-31T03:05:32.571Z,102618.97
2023-05-31T03:07:59.374Z,102614.94
2023-05-31T03:10:28.900Z,102583.13
2023-05-31T03:12:56.019Z,102617.34
2023-05-31T03:15:23.229Z,102618.31
2023-05-31T03:17:50.264Z,102621.16
2023-05-31T03:20:17.136Z,102617.66
2023-05-31T03:22:44.111Z,102575.94
2023-05-31T03:25:11.167Z,102613.06
2023-05-31T03:27:38.577Z,102613.84
2023-05-31T03:30:09.069Z,102571.13
2023-05-31T03:32:37.731Z,102609.13
2023-05-31T03:35:05.391Z,102607.28
2023-05-31T03:37:32.347Z,102611.75
2023-05-31T03:39:59.264Z,102577.44
2023-05-31T03:42:26.112Z,102608.94
2023-05-31T03:44:52.836Z,102595.50
2023-05-31T03:47:22.281Z,102590.69
2023-05-31T03:49:49.217Z,102602.03
2023-05-31T03:52:16.289Z,102560.88
2023-05-31T03:54:43.275Z,102565.91
2023-05-31T03:57:10.011Z,102562.94
2023-05-31T03:59:36.958Z,102606.53
2023-05-31T04:02:04.522Z,102601.81
2023-05-31T04:04:31.703Z,102593.53
2023-05-31T04:06:58.582Z,102574.09
2023-05-31T04:09:27.154Z,102601.59
2023-05-31T04:11:55.347Z,102611.94
2023-05-31T04:14:22.276Z,102593.44
2023-05-31T04:16:49.059Z,102593.25
2023-05-31T04:19:15.983Z,102596.13
2023-05-31T04:21:42.716Z,102551.91
2023-05-31T04:24:09.504Z,102586.56
2023-05-31T04:26:36.672Z,102599.75
2023-05-31T04:29:03.465Z,102602.97
2023-05-31T04:31:43.016Z,102598.91
2023-05-31T04:34:19.815Z,102599.78
2023-05-31T04:36:51.026Z,102502.56
2023-05-31T04:39:18.825Z,102559.38
2023-05-31T04:41:45.640Z,102565.41
2023-05-31T04:44:12.973Z,102592.78
2023-05-31T04:46:42.488Z,102599.97
2023-05-31T04:49:10.942Z,102594.16
2023-05-31T04:51:37.908Z,102597.81
2023-05-31T04:54:04.923Z,102604.22
2023-05-31T04:56:34.465Z,102572.13
2023-05-31T04:59:01.336Z,102604.47
2023-05-31T05:01:29.143Z,102573.16
2023-05-31T05:03:56.025Z,102579.22
2023-05-31T05:06:23.549Z,102571.25
2023-05-31T05:08:50.262Z,102560.19
2023-05-31T05:11:17.058Z,102562.59
2023-05-31T05:13:44.888Z,102457.53
2023-05-31T05:16:12.458Z,102588.91
2023-05-31T05:18:39.317Z,102562.91
2023-05-31T05:21:06.059Z,102584.59
2023-05-31T05:23:34.591Z,102571.88
2023-05-31T05:26:01.911Z,102570.19
2023-05-31T05:28:30.307Z,102584.97
2023-05-31T05:30:57.187Z,102594.81
2023-05-31T05:33:24.246Z,102598.56
2023-05-31T05:35:51.316Z,102522.00
2023-05-31T05:38:18.066Z,102582.63
2023-05-31T05:40:47.338Z,102571.13
2023-05-31T05:43:16.742Z,102582.09
2023-05-31T05:45:43.977Z,102608.34
2023-05-31T05:48:10.910Z,102591.25
2023-05-31T05:50:37.877Z,102595.03
2023-05-31T05:53:05.046Z,102598.09
2023-05-31T05:55:32.212Z,102606.97
2023-05-31T05:57:58.950Z,102604.50
2023-05-31T06:00:25.927Z,102605.69
2023-05-31T06:02:53.346Z,102595.47
2023-05-31T06:05:27.059Z,102606.13
2023-05-31T06:07:54.769Z,102600.59
2023-05-31T06:10:24.927Z,102609.13
2023-05-31T06:12:54.042Z,102578.47
2023-05-31T06:15:21.238Z,102606.59
2023-05-31T06:17:50.615Z,102604.63
2023-05-31T06:20:18.052Z,102607.69
2023-05-31T06:22:46.674Z,102574.69
2023-05-31T06:25:20.779Z,102582.09
2023-05-31T06:27:48.126Z,102593.13
2023-05-31T06:30:15.579Z,102602.09
2023-05-31T06:32:43.471Z,102559.63
2023-05-31T06:35:10.428Z,102614.88
2023-05-31T06:37:40.298Z,102604.56
2023-05-31T06:40:09.094Z,102613.16
2023-05-31T06:42:38.141Z,102603.69
2023-05-31T06:45:06.208Z,102620.47
2023-05-31T06:47:33.982Z,102602.16
2023-05-31T06:50:01.200Z,102608.63
2023-05-31T06:52:28.085Z,102600.00
2023-05-31T06:54:54.837Z,102575.84
2023-05-31T06:57:21.585Z,102582.47
2023-05-31T06:59:51.088Z,102610.03
2023-05-31T07:02:17.882Z,102609.03
2023-05-31T07:04:44.647Z,102614.22
2023-05-31T07:07:12.302Z,102618.66
2023-05-31T07:09:39.254Z,102618.53
2023-05-31T07:12:06.703Z,102604.56
2023-05-31T07:14:33.498Z,102598.19
2023-05-31T07:17:00.219Z,102610.56
2023-05-31T07:19:29.498Z,102589.16
2023-05-31T07:21:56.349Z,102600.13
2023-05-31T07:24:25.451Z,102587.44
2023-05-31T07:26:52.114Z,102593.13
2023-05-31T07:29:18.774Z,102590.69
2023-05-31T07:31:48.200Z,102571.28
2023-05-31T07:34:14.888Z,102582.03
2023-05-31T07:36:42.311Z,102561.81
2023-05-31T07:39:11.780Z,102581.13
2023-05-31T07:41:38.830Z,102594.19
2023-05-31T07:44:06.588Z,102564.25
2023-05-31T07:46:33.316Z,102560.41
2023-05-31T07:49:00.503Z,102559.22
2023-05-31T07:51:29.756Z,102561.63
2023-05-31T07:53:56.644Z,102580.06
2023-05-31T07:56:23.531Z,102578.78
2023-05-31T07:58:50.932Z,102544.75
2023-05-31T08:01:17.635Z,102578.50
2023-05-31T08:03:44.717Z,102563.44
2023-05-31T08:06:11.883Z,102580.53
2023-05-31T08:08:38.622Z,102553.50
2023-05-31T08:11:05.904Z,102563.75
2023-05-31T08:13:32.829Z,102573.81
2023-05-31T08:15:59.555Z,102536.50
2023-05-31T08:18:28.434Z,102571.84
2023-05-31T08:20:58.077Z,102562.50
2023-05-31T08:23:25.088Z,102569.97
2023-05-31T08:25:52.581Z,102550.88
2023-05-31T08:28:19.575Z,102545.66
2023-05-31T08:30:46.694Z,102567.13
2023-05-31T08:33:13.576Z,102539.91
2023-05-31T08:35:42.150Z,102569.31
2023-05-31T08:38:12.030Z,102532.63
2023-05-31T08:40:39.603Z,102559.38
2023-05-31T08:43:17.497Z,102555.31
2023-05-31T08:45:52.176Z,102553.34
2023-05-31T08:48:25.862Z,102550.41
2023-05-31T08:50:56.437Z,102554.47
2023-05-31T08:53:26.693Z,102546.00
2023-05-31T08:55:55.237Z,102549.94
2023-05-31T08:58:23.637Z,102554.78
2023-05-31T09:00:50.781Z,102545.34
2023-05-31T09:03:17.699Z,102558.38
2023-05-31T09:05:44.426Z,102539.19
2023-05-31T09:08:12.259Z,102523.97
2023-05-31T09:10:41.029Z,102545.03
2023-05-31T09:13:10.979Z,102548.69
2023-05-31T09:15:38.568Z,102511.41
2023-05-31T09:18:20.813Z,102543.69
2023-05-31T09:20:49.829Z,102545.94
2023-05-31T09:23:19.051Z,102533.47
2023-05-31T09:25:53.049Z,102535.19
2023-05-31T09:28:23.418Z,102515.41
2023-05-31T09:31:11.625Z,102530.06
2023-05-31T09:33:44.149Z,102529.19
2023-05-31T09:36:15.240Z,102525.53
2023-05-31T09:38:42.224Z,102486.38
2023-05-31T09:41:22.189Z,102523.16
2023-05-31T09:43:51.535Z,102530.41
2023-05-31T09:46:20.785Z,102514.22
2023-05-31T09:49:05.045Z,102489.94
2023-05-31T09:51:35.692Z,102512.53
2023-05-31T09:54:16.057Z,102490.78
2023-05-31T09:56:42.802Z,102482.75
2023-05-31T09:59:11.878Z,102505.59
2023-05-31T10:01:39.053Z,102480.03
2023-05-31T10:04:07.403Z,102489.44
2023-05-31T10:06:38.954Z,102511.66
2023-05-31T10:09:07.677Z,102500.81
2023-05-31T10:11:38.059Z,102506.41
2023-05-31T10:14:10.531Z,102509.47
2023-05-31T10:16:50.199Z,102477.81
2023-05-31T10:19:41.246Z,102501.88
2023-05-31T10:22:09.292Z,102495.59
2023-05-31T10:24:54.105Z,102496.16
2023-05-31T10:27:29.895Z,102469.41
2023-05-31T10:30:06.569Z,102485.09
2023-05-31T10:32:52.445Z,102479.38
2023-05-31T10:35:19.355Z,102473.34
2023-05-31T10:37:46.877Z,102453.16
2023-05-31T10:40:39.608Z,102463.44
2023-05-31T10:43:15.359Z,102475.69
2023-05-31T10:45:55.519Z,102463.38
2023-05-31T10:48:42.322Z,102451.06
2023-05-31T10:51:11.730Z,102461.81
2023-05-31T10:53:39.613Z,102455.41
2023-05-31T10:56:11.867Z,102432.66
2023-05-31T10:58:41.156Z,102451.47
2023-05-31T11:01:14.596Z,102464.97
2023-05-31T11:03:51.388Z,102458.47
2023-05-31T11:06:39.344Z,102447.13
2023-05-31T11:09:14.215Z,102448.88
2023-05-31T11:11:42.279Z,102448.25
2023-05-31T11:14:11.480Z,102412.56
2023-05-31T11:16:44.635Z,102441.59
2023-05-31T11:19:16.337Z,102410.38
2023-05-31T11:22:01.078Z,102432.94
2023-05-31T11:24:32.224Z,102438.31
2023-05-31T11:27:01.462Z,102437.91
2023-05-31T11:29:49.381Z,102425.94
2023-05-31T11:32:18.195Z,102404.22
2023-05-31T11:34:57.800Z,102423.38
2023-05-31T11:37:28.919Z,102429.38
2023-05-31T11:39:56.729Z,102428.53
2023-05-31T11:42:27.136Z,102396.47
2023-05-31T11:44:55.141Z,102408.97
2023-05-31T11:47:26.324Z,102430.63
2023-05-31T11:49:53.879Z,102388.50
2023-05-31T11:52:27.215Z,102395.16
2023-05-31T11:54:56.048Z,102368.72
2023-05-31T11:57:23.504Z,102414.97
2023-05-31T11:59:50.223Z,102416.88
2023-05-31T12:02:18.846Z,102424.59
2023-05-31T12:04:45.778Z,102388.06
2023-05-31T12:07:18.142Z,102404.78
2023-05-31T12:09:45.115Z,102412.53
2023-05-31T12:12:13.508Z,102403.75
2023-05-31T12:14:53.515Z,102367.63
2023-05-31T12:17:20.400Z,102373.66
2023-05-31T12:19:52.847Z,102359.66
2023-05-31T12:22:19.621Z,102397.06
2023-05-31T12:24:56.196Z,102389.34
2023-05-31T12:29:59.239Z,102382.25
2023-05-31T12:32:28.981Z,102388.31
2023-05-31T12:35:11.998Z,102359.91
2023-05-31T12:37:59.473Z,102393.34
2023-05-31T12:40:26.278Z,102346.31
2023-05-31T12:43:03.912Z,102364.09
2023-05-31T12:45:30.948Z,102365.19
2023-05-31T12:48:02.698Z,102332.97
2023-05-31T12:50:31.066Z,102377.22
2023-05-31T12:52:58.672Z,102361.09
2023-05-31T12:55:25.932Z,102321.75
2023-05-31T12:57:53.708Z,102359.13
2023-05-31T13:00:20.972Z,102326.09
2023-05-31T13:02:48.057Z,102354.88
2023-05-31T13:05:14.796Z,102336.88
2023-05-31T13:07:41.782Z,102329.13
2023-05-31T13:10:12.695Z,102315.38
2023-05-31T13:12:42.715Z,102350.59
2023-05-31T13:15:10.244Z,102341.56
2023-05-31T13:17:37.004Z,102320.75
2023-05-31T13:20:12.532Z,102319.22
2023-05-31T13:22:42.636Z,102337.63
2023-05-31T13:25:10.329Z,102341.53
2023-05-31T13:27:37.843Z,102347.59
2023-05-31T13:30:05.415Z,102315.75
2023-05-31T13:32:32.701Z,102330.31
2023-05-31T13:35:01.136Z,102305.38
2023-05-31T13:37:28.710Z,102291.63
2023-05-31T13:39:56.972Z,102300.16
2023-05-31T13:42:24.541Z,102297.59
2023-05-31T13:44:51.494Z,102298.38
2023-05-31T13:47:18.365Z,102285.72
2023-05-31T13:49:47.606Z,102289.16
2023-05-31T13:52:15.341Z,102311.69
2023-05-31T13:54:42.519Z,102310.63
2023-05-31T13:57:09.518Z,102284.81
2023-05-31T13:59:36.682Z,102309.31
2023-05-31T14:02:03.933Z,102305.03
2023-05-31T14:04:30.857Z,102290.88
2023-05-31T14:07:00.877Z,102273.91
2023-05-31T14:09:27.791Z,102300.75
2023-05-31T14:11:55.378Z,102305.69
2023-05-31T14:14:22.427Z,102303.09
2023-05-31T14:16:52.489Z,102291.28
2023-05-31T14:19:19.844Z,102287.84
2023-05-31T14:21:49.287Z,102297.31
2023-05-31T14:24:19.016Z,102283.13
2023-05-31T14:26:48.248Z,102293.66
2023-05-31T14:29:15.014Z,102297.28
2023-05-31T14:31:41.997Z,102282.28
2023-05-31T14:34:08.731Z,102285.25
2023-05-31T14:36:39.058Z,102276.91
2023-05-31T14:39:06.651Z,102255.63
2023-05-31T14:41:33.433Z,102277.69
2023-05-31T14:44:00.295Z,102289.06
2023-05-31T14:46:27.231Z,102256.88
2023-05-31T14:48:56.738Z,102267.34
2023-05-31T14:51:23.463Z,102242.91
2023-05-31T14:53:52.609Z,102268.19
2023-05-31T14:56:20.487Z,102271.00
2023-05-31T14:58:48.412Z,102269.97
2023-05-31T15:01:16.255Z,102270.59
2023-05-31T15:03:43.279Z,102247.00
2023-05-31T15:06:10.358Z,102256.00
2023-05-31T15:08:37.712Z,102275.34
2023-05-31T15:11:04.907Z,102246.41
2023-05-31T15:13:31.804Z,102256.88
2023-05-31T15:15:58.866Z,102265.72
2023-05-31T15:18:28.348Z,102259.47
2023-05-31T15:20:55.750Z,102248.31
2023-05-31T15:23:23.276Z,102261.63
2023-05-31T15:25:50.031Z,102254.56
2023-05-31T15:28:16.837Z,102267.63
2023-05-31T15:30:43.670Z,102265.72
2023-05-31T15:33:10.902Z,102252.56
2023-05-31T15:35:37.682Z,102256.44
2023-05-31T15:38:04.534Z,102257.34
2023-05-31T15:40:31.363Z,102261.44
2023-05-31T15:42:58.190Z,102242.53
2023-05-31T15:45:25.133Z,102253.03
2023-05-31T15:47:52.142Z,102255.84
2023-05-31T15:50:20.079Z,102230.28
2023-05-31T15:52:47.040Z,102215.84
2023-05-31T15:55:13.928Z,102233.03
2023-05-31T15:57:40.751Z,102214.34
2023-05-31T16:00:09.235Z,102231.13
2023-05-31T16:02:36.412Z,102197.59
2023-05-31T16:05:04.164Z,102202.75
2023-05-31T16:07:31.111Z,102201.22
2023-05-31T16:09:58.315Z,102221.00
2023-05-31T16:12:25.605Z,102203.38
2023-05-31T16:14:52.444Z,102216.28
2023-05-31T16:17:19.450Z,102217.34
2023-05-31T16:19:46.524Z,102212.41
2023-05-31T16:22:13.161Z,102208.97
2023-05-31T16:24:42.274Z,102208.34
2023-05-31T16:27:09.166Z,102204.03
2023-05-31T16:29:35.818Z,102211.13
2023-05-31T16:32:02.803Z,102204.69
2023-05-31T16:34:29.679Z,102192.84
2023-05-31T16:36:56.531Z,102189.84
2023-05-31T16:39:23.331Z,102192.81
2023-05-31T16:41:50.255Z,102206.59
2023-05-31T16:44:19.136Z,102173.53
2023-05-31T16:46:48.210Z,102195.22
2023-05-31T16:49:15.142Z,102189.63
2023-05-31T16:51:43.563Z,102193.69
2023-05-31T16:54:10.717Z,102169.84
2023-05-31T16:56:40.260Z,102187.66
2023-05-31T16:59:07.121Z,102177.38
2023-05-31T17:01:34.853Z,102181.28
2023-05-31T17:04:02.170Z,102175.28
2023-05-31T17:06:31.345Z,102179.56
2023-05-31T17:08:58.424Z,102159.59
2023-05-31T17:11:27.924Z,102176.31
2023-05-31T17:13:54.902Z,102182.34
2023-05-31T17:16:21.842Z,102181.28
2023-05-31T17:18:53.504Z,102183.66
2023-05-31T17:21:20.364Z,102171.41
2023-05-31T17:23:47.170Z,102137.06
2023-05-31T17:26:13.983Z,102163.28
2023-05-31T17:28:41.203Z,102173.16
2023-05-31T17:31:07.978Z,102142.28
2023-05-31T17:33:37.221Z,102144.41
2023-05-31T17:36:04.302Z,102166.28
2023-05-31T17:38:31.269Z,102146.13
2023-05-31T17:40:57.897Z,102164.63
2023-05-31T17:43:24.578Z,102143.56
2023-05-31T17:45:52.365Z,102146.34
2023-05-31T17:48:22.502Z,102143.34
2023-05-31T17:50:51.719Z,102165.03
2023-05-31T17:53:18.453Z,102134.31
2023-05-31T17:55:45.374Z,102140.16
2023-05-31T17:58:14.750Z,102133.69
2023-05-31T18:00:41.672Z,102156.22
2023-05-31T18:03:08.587Z,102153.22
2023-05-31T18:05:35.549Z,102154.53
2023-05-31T18:08:02.353Z,102156.66
2023-05-31T18:10:29.332Z,102152.16
2023-05-31T18:12:56.101Z,102133.28
2023-05-31T18:15:22.895Z,102169.34
2023-05-31T18:17:50.104Z,102138.19
2023-05-31T18:20:16.985Z,102162.22
2023-05-31T18:22:43.666Z,102158.34
2023-05-31T18:25:13.356Z,102150.78
2023-05-31T18:27:40.283Z,102165.59
2023-05-31T18:30:08.069Z,102164.09
2023-05-31T18:32:37.228Z,102157.84
2023-05-31T18:35:04.723Z,102123.25
2023-05-31T18:37:31.777Z,102163.44
2023-05-31T18:39:58.690Z,102160.84
2023-05-31T18:42:25.836Z,102158.50
2023-05-31T18:44:53.788Z,102162.31
2023-05-31T18:47:20.575Z,102136.00
2023-05-31T18:49:47.452Z,102135.50
2023-05-31T18:52:14.578Z,102163.34
2023-05-31T18:54:41.292Z,102135.13
2023-05-31T18:57:08.348Z,102131.19
2023-05-31T18:59:35.521Z,102171.28
2023-05-31T19:02:02.933Z,102160.69
2023-05-31T19:04:30.414Z,102119.47
2023-05-31T19:06:57.266Z,102144.97
2023-05-31T19:09:24.352Z,102167.47
2023-05-31T19:11:51.725Z,102172.66
2023-05-31T19:14:19.289Z,102139.63
2023-05-31T19:16:46.189Z,102139.69
2023-05-31T19:19:14.111Z,102178.75
2023-05-31T19:21:43.444Z,102179.06
2023-05-31T19:24:10.418Z,102166.50
2023-05-31T19:26:39.405Z,102159.69
2023-05-31T19:29:07.853Z,102171.97
2023-05-31T19:31:34.674Z,102159.47
2023-05-31T19:34:01.633Z,102164.09
2023-05-31T19:36:28.661Z,102160.56
2023-05-31T19:38:55.480Z,102192.06
2023-05-31T19:41:24.803Z,102197.72
2023-05-31T19:43:51.699Z,102204.03
2023-05-31T19:46:25.935Z,102207.75
2023-05-31T19:48:54.415Z,102204.41
2023-05-31T19:51:24.806Z,102208.84
2023-05-31T19:53:51.803Z,102216.97
2023-05-31T19:56:18.525Z,102215.72
2023-05-31T19:58:45.511Z,102212.50
2023-05-31T20:01:12.423Z,102210.16
2023-05-31T20:03:39.981Z,102218.91
2023-05-31T20:06:07.151Z,102223.84
2023-05-31T20:08:34.287Z,102234.09
2023-05-31T20:11:01.100Z,102222.38
2023-05-31T20:13:27.943Z,102231.97
2023-05-31T20:15:55.057Z,102230.09
2023-05-31T20:18:23.963Z,102241.22
2023-05-31T20:20:52.134Z,102240.19
2023-05-31T20:23:19.475Z,102208.66
2023-05-31T20:25:46.803Z,102218.19
2023-05-31T20:28:13.528Z,102244.84
2023-05-31T20:30:42.265Z,102252.09
2023-05-31T20:33:09.089Z,102260.72
2023-05-31T20:35:38.172Z,102263.53
2023-05-31T20:38:04.820Z,102253.00
2023-05-31T20:40:31.889Z,102258.19
2023-05-31T20:43:00.836Z,102266.50
2023-05-31T20:45:27.768Z,102231.41
2023-05-31T20:47:56.456Z,102233.66
2023-05-31T20:50:23.499Z,102235.00
2023-05-31T20:52:50.657Z,102268.91
2023-05-31T20:55:17.812Z,102269.91
2023-05-31T20:57:45.257Z,102279.72
2023-05-31T21:00:13.216Z,102276.94
2023-05-31T21:02:40.156Z,102238.88
2023-05-31T21:05:09.395Z,102273.44
2023-05-31T21:07:36.182Z,102275.78
2023-05-31T21:10:02.901Z,102294.78
2023-05-31T21:12:29.766Z,102254.25
2023-05-31T21:14:56.938Z,102291.44
2023-05-31T21:17:24.816Z,102290.00
2023-05-31T21:19:52.971Z,102292.56
2023-05-31T21:22:22.404Z,102302.72
2023-05-31T21:24:51.301Z,102295.84
2023-05-31T21:27:19.138Z,102268.25
2023-05-31T21:29:53.308Z,102304.03
2023-05-31T21:32:20.691Z,102293.41
2023-05-31T21:34:48.004Z,102297.53
2023-05-31T21:37:16.047Z,102292.63
2023-05-31T21:39:55.947Z,102261.22
2023-05-31T21:42:24.051Z,102250.75
2023-05-31T21:44:51.668Z,102253.59
2023-05-31T21:47:19.134Z,102305.09
2023-05-31T21:49:46.477Z,102268.78
2023-05-31T21:52:14.941Z,102280.81
2023-05-31T21:54:45.621Z,102277.25
2023-05-31T21:57:14.132Z,102274.41
2023-05-31T21:59:43.978Z,102276.47
2023-05-31T22:02:11.569Z,102315.22
2023-05-31T22:04:40.346Z,102304.88
2023-05-31T22:07:07.123Z,102288.47
2023-05-31T22:09:33.967Z,102321.69
2023-05-31T22:12:01.059Z,102322.47
2023-05-31T22:14:30.208Z,102320.94
2023-05-31T22:17:00.817Z,102318.06
2023-05-31T22:19:27.538Z,102278.63
2023-05-31T22:21:56.130Z,102284.84
2023-05-31T22:24:23.848Z,102315.50
2023-05-31T22:26:50.884Z,102317.69
2023-05-31T22:29:20.113Z,102312.97
2023-05-31T22:31:47.180Z,102315.88
2023-05-31T22:34:15.056Z,102315.28
2023-05-31T22:36:46.242Z,102293.59
2023-05-31T22:39:15.666Z,102276.69
2023-05-31T22:41:44.934Z,102327.78
2023-05-31T22:44:12.132Z,102280.03
2023-05-31T22:46:39.385Z,102321.41
2023-05-31T22:49:06.111Z,102319.41
2023-05-31T22:51:34.092Z,102325.50
2023-05-31T22:54:00.774Z,102321.72
2023-05-31T22:56:29.821Z,102285.13
2023-05-31T22:58:59.060Z,102322.19
2023-05-31T23:01:25.905Z,102299.59
2023-05-31T23:03:53.348Z,102336.19
2023-05-31T23:06:21.336Z,102340.38
2023-05-31T23:08:50.176Z,102308.22
2023-05-31T23:11:20.288Z,102348.31
2023-05-31T23:13:47.045Z,102352.03
2023-05-31T23:16:13.839Z,102354.63
2023-05-31T23:22:33.144Z,102311.84
2023-05-31T23:25:00.582Z,102357.38
2023-05-31T23:27:27.747Z,102360.81
2023-05-31T23:29:54.417Z,102362.56
2023-05-31T23:32:21.282Z,102370.94
2023-05-31T23:34:48.343Z,102336.47
2023-05-31T23:37:15.631Z,102360.59
2023-05-31T23:39:45.173Z,102329.84
2023-05-31T23:42:12.047Z,102359.53
2023-05-31T23:44:38.943Z,102337.44
2023-05-31T23:47:06.350Z,102373.59
2023-05-31T23:49:33.011Z,102369.53
2023-05-31T23:52:00.156Z,102374.81
2023-05-31T23:54:27.399Z,102339.31
2023-05-31T23:56:56.521Z,102366.66
2023-05-31T23:59:23.501Z,102331.69
